sensor_id;sensor_type;location;lat;lon;timestamp;temperature;humidity
52415;DHT22;38340;52.964;6.086;2023-07-20T00:01:08;14.60;99.90
52415;DHT22;38340;52.964;6.086;2023-07-20T00:03:33;14.50;99.90
52415;DHT22;38340;52.964;6.086;2023-07-20T00:05:59;14.50;99.90
52415;DHT22;38340;52.964;6.086;2023-07-20T00:08:25;14.50;99.90
52415;DHT22;38340;52.964;6.086;2023-07-20T00:10:50;14.50;99.90
52415;DHT22;38340;52.964;6.086;2023-07-20T00:13:16;14.40;99.90
52415;DHT22;38340;52.964;6.086;2023-07-20T00:15:44;14.40;99.90
52415;DHT22;38340;52.964;6.086;2023-07-20T00:18:09;14.40;99.90
52415;DHT22;38340;52.964;6.086;2023-07-20T00:20:35;14.30;99.90
52415;DHT22;38340;52.964;6.086;2023-07-20T00:23:01;14.30;99.90
52415;DHT22;38340;52.964;6.086;2023-07-20T00:25:27;14.20;99.90
52415;DHT22;38340;52.964;6.086;2023-07-20T00:27:52;14.10;99.90
52415;DHT22;38340;52.964;6.086;2023-07-20T00:30:18;14.10;99.90
52415;DHT22;38340;52.964;6.086;2023-07-20T00:32:44;14.10;99.90
52415;DHT22;38340;52.964;6.086;2023-07-20T00:35:10;14.00;99.90
52415;DHT22;38340;52.964;6.086;2023-07-20T00:37:37;13.90;99.90
52415;DHT22;38340;52.964;6.086;2023-07-20T00:40:03;13.80;99.90
52415;DHT22;38340;52.964;6.086;2023-07-20T00:42:33;13.80;99.90
52415;DHT22;38340;52.964;6.086;2023-07-20T00:44:59;13.70;99.90
52415;DHT22;38340;52.964;6.086;2023-07-20T00:47:25;13.60;99.90
52415;DHT22;38340;52.964;6.086;2023-07-20T00:49:51;13.60;99.90
52415;DHT22;38340;52.964;6.086;2023-07-20T00:52:19;13.50;99.90
52415;DHT22;38340;52.964;6.086;2023-07-20T00:54:46;13.50;99.90
52415;DHT22;38340;52.964;6.086;2023-07-20T00:57:14;13.40;99.90
52415;DHT22;38340;52.964;6.086;2023-07-20T00:59:40;13.40;99.90
52415;DHT22;38340;52.964;6.086;2023-07-20T01:02:06;13.30;99.90
52415;DHT22;38340;52.964;6.086;2023-07-20T01:04:32;13.30;99.90
52415;DHT22;38340;52.964;6.086;2023-07-20T01:07:12;13.20;99.90
52415;DHT22;38340;52.964;6.086;2023-07-20T01:09:58;13.10;99.90
52415;DHT22;38340;52.964;6.086;2023-07-20T01:12:42;13.10;99.90
52415;DHT22;38340;52.964;6.086;2023-07-20T01:15:09;13.00;99.90
52415;DHT22;38340;52.964;6.086;2023-07-20T01:17:35;12.90;99.90
52415;DHT22;38340;52.964;6.086;2023-07-20T01:20:01;12.90;99.90
52415;DHT22;38340;52.964;6.086;2023-07-20T01:25:31;12.80;99.90
52415;DHT22;38340;52.964;6.086;2023-07-20T01:33:20;12.60;99.90
52415;DHT22;38340;52.964;6.086;2023-07-20T01:35:52;12.60;99.90
52415;DHT22;38340;52.964;6.086;2023-07-20T01:38:19;12.60;99.90
52415;DHT22;38340;52.964;6.086;2023-07-20T01:40:45;12.50;99.90
52415;DHT22;38340;52.964;6.086;2023-07-20T01:43:11;12.50;99.90
52415;DHT22;38340;52.964;6.086;2023-07-20T01:45:37;12.50;99.90
52415;DHT22;38340;52.964;6.086;2023-07-20T01:48:04;12.50;99.90
52415;DHT22;38340;52.964;6.086;2023-07-20T01:50:29;12.50;99.90
52415;DHT22;38340;52.964;6.086;2023-07-20T01:52:55;12.50;99.90
52415;DHT22;38340;52.964;6.086;2023-07-20T01:55:21;12.50;99.90
52415;DHT22;38340;52.964;6.086;2023-07-20T01:57:47;12.40;99.90
52415;DHT22;38340;52.964;6.086;2023-07-20T02:00:13;12.40;99.90
52415;DHT22;38340;52.964;6.086;2023-07-20T02:02:39;12.30;99.90
52415;DHT22;38340;52.964;6.086;2023-07-20T02:05:04;12.30;99.90
52415;DHT22;38340;52.964;6.086;2023-07-20T02:07:30;12.30;99.90
52415;DHT22;38340;52.964;6.086;2023-07-20T02:09:56;12.20;99.90
52415;DHT22;38340;52.964;6.086;2023-07-20T02:12:22;12.20;99.90
52415;DHT22;38340;52.964;6.086;2023-07-20T02:14:48;12.20;99.90
52415;DHT22;38340;52.964;6.086;2023-07-20T02:17:15;12.20;99.90
52415;DHT22;38340;52.964;6.086;2023-07-20T02:19:41;12.10;99.90
52415;DHT22;38340;52.964;6.086;2023-07-20T02:22:06;12.10;99.90
52415;DHT22;38340;52.964;6.086;2023-07-20T02:24:33;12.10;99.90
52415;DHT22;38340;52.964;6.086;2023-07-20T02:26:59;12.00;99.90
52415;DHT22;38340;52.964;6.086;2023-07-20T02:29:25;12.00;99.90
52415;DHT22;38340;52.964;6.086;2023-07-20T02:31:50;12.00;99.90
52415;DHT22;38340;52.964;6.086;2023-07-20T02:34:16;12.00;99.90
52415;DHT22;38340;52.964;6.086;2023-07-20T02:36:41;12.00;99.90
52415;DHT22;38340;52.964;6.086;2023-07-20T02:39:08;11.90;99.90
52415;DHT22;38340;52.964;6.086;2023-07-20T02:41:34;11.90;99.90
52415;DHT22;38340;52.964;6.086;2023-07-20T02:44:00;11.80;99.90
52415;DHT22;38340;52.964;6.086;2023-07-20T02:46:27;11.70;99.90
52415;DHT22;38340;52.964;6.086;2023-07-20T02:48:55;11.70;99.90
52415;DHT22;38340;52.964;6.086;2023-07-20T02:51:21;11.60;99.90
52415;DHT22;38340;52.964;6.086;2023-07-20T02:53:47;11.60;99.90
52415;DHT22;38340;52.964;6.086;2023-07-20T02:56:12;11.50;99.90
52415;DHT22;38340;52.964;6.086;2023-07-20T02:58:41;11.40;99.90
52415;DHT22;38340;52.964;6.086;2023-07-20T03:01:11;11.30;99.90
52415;DHT22;38340;52.964;6.086;2023-07-20T03:03:37;11.30;99.90
52415;DHT22;38340;52.964;6.086;2023-07-20T03:06:04;11.20;99.90
52415;DHT22;38340;52.964;6.086;2023-07-20T03:08:30;11.10;99.90
52415;DHT22;38340;52.964;6.086;2023-07-20T03:10:56;11.10;99.90
52415;DHT22;38340;52.964;6.086;2023-07-20T03:13:21;11.00;99.90
52415;DHT22;38340;52.964;6.086;2023-07-20T03:15:47;10.90;99.90
52415;DHT22;38340;52.964;6.086;2023-07-20T03:18:13;10.90;99.90
52415;DHT22;38340;52.964;6.086;2023-07-20T03:20:38;10.90;99.90
52415;DHT22;38340;52.964;6.086;2023-07-20T03:23:04;10.80;99.90
52415;DHT22;38340;52.964;6.086;2023-07-20T03:25:30;10.80;99.90
52415;DHT22;38340;52.964;6.086;2023-07-20T03:27:55;10.90;99.90
52415;DHT22;38340;52.964;6.086;2023-07-20T03:30:21;10.90;99.90
52415;DHT22;38340;52.964;6.086;2023-07-20T03:32:48;10.90;99.90
52415;DHT22;38340;52.964;6.086;2023-07-20T03:35:14;11.00;99.90
52415;DHT22;38340;52.964;6.086;2023-07-20T03:37:41;11.00;99.90
52415;DHT22;38340;52.964;6.086;2023-07-20T03:40:08;11.00;99.90
52415;DHT22;38340;52.964;6.086;2023-07-20T03:42:34;11.00;99.90
52415;DHT22;38340;52.964;6.086;2023-07-20T03:44:59;11.10;99.90
52415;DHT22;38340;52.964;6.086;2023-07-20T03:47:25;11.10;99.90
52415;DHT22;38340;52.964;6.086;2023-07-20T03:49:50;11.10;99.90
52415;DHT22;38340;52.964;6.086;2023-07-20T03:52:16;11.20;99.90
52415;DHT22;38340;52.964;6.086;2023-07-20T03:54:42;11.10;99.90
52415;DHT22;38340;52.964;6.086;2023-07-20T03:57:08;11.10;99.90
52415;DHT22;38340;52.964;6.086;2023-07-20T03:59:36;11.10;99.90
52415;DHT22;38340;52.964;6.086;2023-07-20T04:02:02;11.10;99.90
52415;DHT22;38340;52.964;6.086;2023-07-20T04:04:28;11.10;99.90
52415;DHT22;38340;52.964;6.086;2023-07-20T04:06:53;11.10;99.90
52415;DHT22;38340;52.964;6.086;2023-07-20T04:09:19;11.20;99.90
52415;DHT22;38340;52.964;6.086;2023-07-20T04:11:45;11.30;99.90
52415;DHT22;38340;52.964;6.086;2023-07-20T04:14:10;11.30;99.90
52415;DHT22;38340;52.964;6.086;2023-07-20T04:16:36;11.40;99.90
52415;DHT22;38340;52.964;6.086;2023-07-20T04:19:03;11.40;99.90
52415;DHT22;38340;52.964;6.086;2023-07-20T04:21:28;11.40;99.90
52415;DHT22;38340;52.964;6.086;2023-07-20T04:23:54;11.40;99.90
52415;DHT22;38340;52.964;6.086;2023-07-20T04:26:20;11.40;99.90
52415;DHT22;38340;52.964;6.086;2023-07-20T04:28:45;11.40;99.90
52415;DHT22;38340;52.964;6.086;2023-07-20T04:31:12;11.40;99.90
52415;DHT22;38340;52.964;6.086;2023-07-20T04:33:39;11.40;99.90
52415;DHT22;38340;52.964;6.086;2023-07-20T04:36:05;12.00;99.90
52415;DHT22;38340;52.964;6.086;2023-07-20T04:38:30;12.80;99.90
52415;DHT22;38340;52.964;6.086;2023-07-20T04:40:57;13.50;99.90
52415;DHT22;38340;52.964;6.086;2023-07-20T04:43:22;14.20;99.90
52415;DHT22;38340;52.964;6.086;2023-07-20T04:45:48;14.70;99.90
52415;DHT22;38340;52.964;6.086;2023-07-20T04:48:16;15.20;99.90
52415;DHT22;38340;52.964;6.086;2023-07-20T04:50:43;15.70;99.90
52415;DHT22;38340;52.964;6.086;2023-07-20T04:53:10;16.20;99.90
52415;DHT22;38340;52.964;6.086;2023-07-20T04:55:37;16.60;99.90
52415;DHT22;38340;52.964;6.086;2023-07-20T04:58:03;17.00;99.90
52415;DHT22;38340;52.964;6.086;2023-07-20T05:00:37;17.30;99.90
52415;DHT22;38340;52.964;6.086;2023-07-20T05:03:03;17.60;99.90
52415;DHT22;38340;52.964;6.086;2023-07-20T05:05:31;17.80;99.90
52415;DHT22;38340;52.964;6.086;2023-07-20T05:07:57;17.80;99.90
52415;DHT22;38340;52.964;6.086;2023-07-20T05:10:23;17.90;99.90
52415;DHT22;38340;52.964;6.086;2023-07-20T05:12:49;18.00;99.90
52415;DHT22;38340;52.964;6.086;2023-07-20T05:15:15;18.30;99.90
52415;DHT22;38340;52.964;6.086;2023-07-20T05:17:41;18.70;99.90
52415;DHT22;38340;52.964;6.086;2023-07-20T05:20:07;18.90;99.90
52415;DHT22;38340;52.964;6.086;2023-07-20T05:22:36;18.70;99.90
52415;DHT22;38340;52.964;6.086;2023-07-20T05:25:09;18.80;99.90
52415;DHT22;38340;52.964;6.086;2023-07-20T05:27:37;19.00;99.90
52415;DHT22;38340;52.964;6.086;2023-07-20T05:30:03;18.90;99.90
52415;DHT22;38340;52.964;6.086;2023-07-20T05:32:29;18.90;99.90
52415;DHT22;38340;52.964;6.086;2023-07-20T05:34:55;19.10;99.90
52415;DHT22;38340;52.964;6.086;2023-07-20T05:37:21;19.00;99.90
52415;DHT22;38340;52.964;6.086;2023-07-20T05:39:46;19.10;99.90
52415;DHT22;38340;52.964;6.086;2023-07-20T05:42:12;19.10;99.90
52415;DHT22;38340;52.964;6.086;2023-07-20T05:44:39;19.10;99.90
52415;DHT22;38340;52.964;6.086;2023-07-20T05:47:04;19.10;99.90
52415;DHT22;38340;52.964;6.086;2023-07-20T05:49:30;18.80;99.90
52415;DHT22;38340;52.964;6.086;2023-07-20T05:51:56;18.80;99.90
52415;DHT22;38340;52.964;6.086;2023-07-20T05:54:24;18.50;99.90
52415;DHT22;38340;52.964;6.086;2023-07-20T05:56:50;18.30;99.90
52415;DHT22;38340;52.964;6.086;2023-07-20T05:59:15;18.10;99.90
52415;DHT22;38340;52.964;6.086;2023-07-20T06:01:43;17.90;99.90
52415;DHT22;38340;52.964;6.086;2023-07-20T06:04:09;17.80;99.90
52415;DHT22;38340;52.964;6.086;2023-07-20T06:06:34;17.70;99.90
52415;DHT22;38340;52.964;6.086;2023-07-20T06:09:00;17.60;99.90
52415;DHT22;38340;52.964;6.086;2023-07-20T06:11:30;17.40;99.90
52415;DHT22;38340;52.964;6.086;2023-07-20T06:13:56;17.30;99.90
52415;DHT22;38340;52.964;6.086;2023-07-20T06:16:22;16.90;99.90
52415;DHT22;38340;52.964;6.086;2023-07-20T06:18:48;16.90;99.90
52415;DHT22;38340;52.964;6.086;2023-07-20T06:21:14;17.00;99.90
52415;DHT22;38340;52.964;6.086;2023-07-20T06:23:40;17.10;99.90
52415;DHT22;38340;52.964;6.086;2023-07-20T06:26:06;17.10;99.90
52415;DHT22;38340;52.964;6.086;2023-07-20T06:28:33;17.20;99.90
52415;DHT22;38340;52.964;6.086;2023-07-20T06:31:00;17.40;99.90
52415;DHT22;38340;52.964;6.086;2023-07-20T06:33:26;17.30;99.90
52415;DHT22;38340;52.964;6.086;2023-07-20T06:35:52;17.40;99.90
52415;DHT22;38340;52.964;6.086;2023-07-20T06:38:19;17.30;99.90
52415;DHT22;38340;52.964;6.086;2023-07-20T06:40:47;17.30;99.90
52415;DHT22;38340;52.964;6.086;2023-07-20T06:43:13;17.60;99.90
52415;DHT22;38340;52.964;6.086;2023-07-20T06:45:40;17.90;99.90
52415;DHT22;38340;52.964;6.086;2023-07-20T06:48:06;17.90;99.90
52415;DHT22;38340;52.964;6.086;2023-07-20T06:50:32;17.80;99.90
52415;DHT22;38340;52.964;6.086;2023-07-20T06:52:57;17.60;99.90
52415;DHT22;38340;52.964;6.086;2023-07-20T06:55:24;17.40;99.90
52415;DHT22;38340;52.964;6.086;2023-07-20T06:57:50;17.30;99.90
52415;DHT22;38340;52.964;6.086;2023-07-20T07:00:16;17.60;99.90
52415;DHT22;38340;52.964;6.086;2023-07-20T07:02:42;17.60;99.90
52415;DHT22;38340;52.964;6.086;2023-07-20T07:05:08;17.50;99.90
52415;DHT22;38340;52.964;6.086;2023-07-20T07:07:34;17.50;99.90
52415;DHT22;38340;52.964;6.086;2023-07-20T07:10:00;17.40;99.90
52415;DHT22;38340;52.964;6.086;2023-07-20T07:12:26;17.40;99.90
52415;DHT22;38340;52.964;6.086;2023-07-20T07:14:51;17.50;99.90
52415;DHT22;38340;52.964;6.086;2023-07-20T07:17:18;17.50;99.90
52415;DHT22;38340;52.964;6.086;2023-07-20T07:19:43;17.50;99.90
52415;DHT22;38340;52.964;6.086;2023-07-20T07:22:10;17.50;99.90
52415;DHT22;38340;52.964;6.086;2023-07-20T07:24:35;17.50;99.90
52415;DHT22;38340;52.964;6.086;2023-07-20T07:27:01;17.60;99.90
52415;DHT22;38340;52.964;6.086;2023-07-20T07:29:27;17.80;99.90
52415;DHT22;38340;52.964;6.086;2023-07-20T07:31:53;18.00;99.90
52415;DHT22;38340;52.964;6.086;2023-07-20T07:34:19;18.10;99.90
52415;DHT22;38340;52.964;6.086;2023-07-20T07:36:44;18.20;99.90
52415;DHT22;38340;52.964;6.086;2023-07-20T07:39:11;18.10;99.90
52415;DHT22;38340;52.964;6.086;2023-07-20T07:41:37;18.00;99.90
52415;DHT22;38340;52.964;6.086;2023-07-20T07:44:02;18.10;99.90
52415;DHT22;38340;52.964;6.086;2023-07-20T07:46:28;18.20;99.90
52415;DHT22;38340;52.964;6.086;2023-07-20T07:48:54;18.20;99.90
52415;DHT22;38340;52.964;6.086;2023-07-20T07:51:19;18.40;99.90
52415;DHT22;38340;52.964;6.086;2023-07-20T07:53:48;18.40;99.90
52415;DHT22;38340;52.964;6.086;2023-07-20T07:56:14;18.60;99.90
52415;DHT22;38340;52.964;6.086;2023-07-20T07:58:40;18.40;99.90
52415;DHT22;38340;52.964;6.086;2023-07-20T08:01:06;18.50;99.90
52415;DHT22;38340;52.964;6.086;2023-07-20T08:03:31;18.40;99.90
52415;DHT22;38340;52.964;6.086;2023-07-20T08:05:57;18.30;99.90
52415;DHT22;38340;52.964;6.086;2023-07-20T08:08:25;18.40;99.90
52415;DHT22;38340;52.964;6.086;2023-07-20T08:10:53;18.60;99.90
52415;DHT22;38340;52.964;6.086;2023-07-20T08:13:20;18.80;99.90
52415;DHT22;38340;52.964;6.086;2023-07-20T08:15:49;18.70;99.90
52415;DHT22;38340;52.964;6.086;2023-07-20T08:18:16;18.70;99.90
52415;DHT22;38340;52.964;6.086;2023-07-20T08:20:45;18.70;99.90
52415;DHT22;38340;52.964;6.086;2023-07-20T08:23:11;18.80;99.90
52415;DHT22;38340;52.964;6.086;2023-07-20T08:25:37;19.10;99.90
52415;DHT22;38340;52.964;6.086;2023-07-20T08:28:05;19.10;99.90
52415;DHT22;38340;52.964;6.086;2023-07-20T08:30:44;19.30;99.90
52415;DHT22;38340;52.964;6.086;2023-07-20T08:33:12;19.70;99.90
52415;DHT22;38340;52.964;6.086;2023-07-20T08:35:38;19.80;99.90
52415;DHT22;38340;52.964;6.086;2023-07-20T08:38:03;19.90;99.90
52415;DHT22;38340;52.964;6.086;2023-07-20T08:40:31;20.10;99.90
52415;DHT22;38340;52.964;6.086;2023-07-20T08:42:58;20.30;99.90
52415;DHT22;38340;52.964;6.086;2023-07-20T08:45:27;20.10;99.90
52415;DHT22;38340;52.964;6.086;2023-07-20T08:47:56;19.60;99.90
52415;DHT22;38340;52.964;6.086;2023-07-20T08:50:23;19.10;99.90
52415;DHT22;38340;52.964;6.086;2023-07-20T08:52:52;19.30;99.90
52415;DHT22;38340;52.964;6.086;2023-07-20T08:55:20;19.30;99.90
52415;DHT22;38340;52.964;6.086;2023-07-20T08:57:50;19.30;99.90
52415;DHT22;38340;52.964;6.086;2023-07-20T09:00:17;19.40;99.90
52415;DHT22;38340;52.964;6.086;2023-07-20T09:02:45;19.40;99.90
52415;DHT22;38340;52.964;6.086;2023-07-20T09:05:11;19.60;99.90
52415;DHT22;38340;52.964;6.086;2023-07-20T09:07:42;19.80;99.90
52415;DHT22;38340;52.964;6.086;2023-07-20T09:10:08;19.80;99.90
52415;DHT22;38340;52.964;6.086;2023-07-20T09:12:42;19.80;99.90
52415;DHT22;38340;52.964;6.086;2023-07-20T09:15:09;20.10;99.90
52415;DHT22;38340;52.964;6.086;2023-07-20T09:17:35;20.30;99.90
52415;DHT22;38340;52.964;6.086;2023-07-20T09:20:08;19.70;99.90
52415;DHT22;38340;52.964;6.086;2023-07-20T09:22:38;19.60;99.90
52415;DHT22;38340;52.964;6.086;2023-07-20T09:25:14;19.50;99.90
52415;DHT22;38340;52.964;6.086;2023-07-20T09:27:42;19.20;99.90
52415;DHT22;38340;52.964;6.086;2023-07-20T09:30:08;19.30;99.90
52415;DHT22;38340;52.964;6.086;2023-07-20T09:32:45;19.70;99.90
52415;DHT22;38340;52.964;6.086;2023-07-20T09:35:21;20.10;99.90
52415;DHT22;38340;52.964;6.086;2023-07-20T09:40:20;20.60;99.90
52415;DHT22;38340;52.964;6.086;2023-07-20T09:42:47;20.90;99.90
52415;DHT22;38340;52.964;6.086;2023-07-20T09:45:13;21.20;99.90
52415;DHT22;38340;52.964;6.086;2023-07-20T09:47:39;21.20;93.70
52415;DHT22;38340;52.964;6.086;2023-07-20T09:50:07;21.00;85.80
52415;DHT22;38340;52.964;6.086;2023-07-20T09:52:40;20.50;91.40
52415;DHT22;38340;52.964;6.086;2023-07-20T09:55:09;20.50;93.70
52415;DHT22;38340;52.964;6.086;2023-07-20T09:57:36;20.60;99.90
52415;DHT22;38340;52.964;6.086;2023-07-20T10:00:05;20.90;97.60
52415;DHT22;38340;52.964;6.086;2023-07-20T10:02:45;21.20;99.90
52415;DHT22;38340;52.964;6.086;2023-07-20T10:05:13;21.00;73.60
52415;DHT22;38340;52.964;6.086;2023-07-20T10:07:49;21.00;85.30
52415;DHT22;38340;52.964;6.086;2023-07-20T10:10:16;21.00;90.90
52415;DHT22;38340;52.964;6.086;2023-07-20T10:12:52;21.30;92.90
52415;DHT22;38340;52.964;6.086;2023-07-20T10:15:23;21.30;84.50
52415;DHT22;38340;52.964;6.086;2023-07-20T10:18:28;21.30;96.40
52415;DHT22;38340;52.964;6.086;2023-07-20T10:20:55;21.30;92.20
52415;DHT22;38340;52.964;6.086;2023-07-20T10:23:22;21.50;99.90
52415;DHT22;38340;52.964;6.086;2023-07-20T10:25:50;21.60;89.90
52415;DHT22;38340;52.964;6.086;2023-07-20T10:28:16;22.10;91.40
52415;DHT22;38340;52.964;6.086;2023-07-20T10:30:42;22.20;76.90
52415;DHT22;38340;52.964;6.086;2023-07-20T10:33:09;22.30;69.00
52415;DHT22;38340;52.964;6.086;2023-07-20T10:35:56;22.20;50.90
52415;DHT22;38340;52.964;6.086;2023-07-20T10:38:41;22.10;68.90
52415;DHT22;38340;52.964;6.086;2023-07-20T10:41:35;22.20;60.50
52415;DHT22;38340;52.964;6.086;2023-07-20T10:44:06;22.10;74.20
52415;DHT22;38340;52.964;6.086;2023-07-20T10:49:05;21.90;78.30
52415;DHT22;38340;52.964;6.086;2023-07-20T10:51:45;21.60;73.50
52415;DHT22;38340;52.964;6.086;2023-07-20T10:56:42;22.10;60.90
52415;DHT22;38340;52.964;6.086;2023-07-20T10:59:40;22.40;75.00
52415;DHT22;38340;52.964;6.086;2023-07-20T11:02:07;22.50;45.20
52415;DHT22;38340;52.964;6.086;2023-07-20T11:04:46;22.70;25.90
52415;DHT22;38340;52.964;6.086;2023-07-20T11:07:17;22.80;41.90
52415;DHT22;38340;52.964;6.086;2023-07-20T11:09:43;23.10;45.60
52415;DHT22;38340;52.964;6.086;2023-07-20T11:12:14;22.60;11.20
52415;DHT22;38340;52.964;6.086;2023-07-20T11:14:57;22.30;18.50
52415;DHT22;38340;52.964;6.086;2023-07-20T11:17:30;22.30;40.60
52415;DHT22;38340;52.964;6.086;2023-07-20T11:20:00;22.40;1.00
52415;DHT22;38340;52.964;6.086;2023-07-20T11:22:27;22.20;1.00
52415;DHT22;38340;52.964;6.086;2023-07-20T11:24:57;22.20;22.80
52415;DHT22;38340;52.964;6.086;2023-07-20T11:27:22;22.50;49.00
52415;DHT22;38340;52.964;6.086;2023-07-20T11:29:48;22.60;28.20
52415;DHT22;38340;52.964;6.086;2023-07-20T11:32:22;22.90;27.00
52415;DHT22;38340;52.964;6.086;2023-07-20T11:34:48;23.00;7.70
52415;DHT22;38340;52.964;6.086;2023-07-20T11:37:14;22.90;28.40
52415;DHT22;38340;52.964;6.086;2023-07-20T11:39:39;23.00;21.50
52415;DHT22;38340;52.964;6.086;2023-07-20T11:42:05;22.80;38.50
52415;DHT22;38340;52.964;6.086;2023-07-20T11:44:32;22.80;8.20
52415;DHT22;38340;52.964;6.086;2023-07-20T11:47:07;22.70;8.10
52415;DHT22;38340;52.964;6.086;2023-07-20T11:49:36;22.30;27.80
52415;DHT22;38340;52.964;6.086;2023-07-20T11:52:04;22.10;11.20
52415;DHT22;38340;52.964;6.086;2023-07-20T11:54:31;22.10;3.10
52415;DHT22;38340;52.964;6.086;2023-07-20T11:57:01;22.10;13.70
52415;DHT22;38340;52.964;6.086;2023-07-20T11:59:28;22.10;12.70
52415;DHT22;38340;52.964;6.086;2023-07-20T12:01:54;21.90;8.90
52415;DHT22;38340;52.964;6.086;2023-07-20T12:04:22;21.70;4.70
52415;DHT22;38340;52.964;6.086;2023-07-20T12:06:48;21.70;23.20
52415;DHT22;38340;52.964;6.086;2023-07-20T12:09:15;22.10;25.30
52415;DHT22;38340;52.964;6.086;2023-07-20T12:11:43;22.50;1.90
52415;DHT22;38340;52.964;6.086;2023-07-20T12:14:10;22.70;8.50
52415;DHT22;38340;52.964;6.086;2023-07-20T12:16:37;22.80;18.40
52415;DHT22;38340;52.964;6.086;2023-07-20T12:19:11;22.70;16.40
52415;DHT22;38340;52.964;6.086;2023-07-20T12:21:41;22.40;31.90
52415;DHT22;38340;52.964;6.086;2023-07-20T12:24:08;22.10;40.80
52415;DHT22;38340;52.964;6.086;2023-07-20T12:26:37;22.40;46.50
52415;DHT22;38340;52.964;6.086;2023-07-20T12:29:04;22.60;55.90
52415;DHT22;38340;52.964;6.086;2023-07-20T12:31:30;22.60;28.10
52415;DHT22;38340;52.964;6.086;2023-07-20T12:33:57;22.50;18.90
52415;DHT22;38340;52.964;6.086;2023-07-20T12:36:24;22.10;36.40
52415;DHT22;38340;52.964;6.086;2023-07-20T12:38:50;21.80;31.10
52415;DHT22;38340;52.964;6.086;2023-07-20T12:41:16;21.50;49.60
52415;DHT22;38340;52.964;6.086;2023-07-20T12:43:42;21.30;64.80
52415;DHT22;38340;52.964;6.086;2023-07-20T12:46:09;21.50;71.60
52415;DHT22;38340;52.964;6.086;2023-07-20T12:48:36;21.50;49.80
52415;DHT22;38340;52.964;6.086;2023-07-20T12:51:06;21.40;38.80
52415;DHT22;38340;52.964;6.086;2023-07-20T12:53:33;21.30;33.70
52415;DHT22;38340;52.964;6.086;2023-07-20T12:55:59;21.00;39.50
52415;DHT22;38340;52.964;6.086;2023-07-20T12:58:26;21.10;49.50
52415;DHT22;38340;52.964;6.086;2023-07-20T13:00:52;21.00;63.90
52415;DHT22;38340;52.964;6.086;2023-07-20T13:03:18;21.10;76.50
52415;DHT22;38340;52.964;6.086;2023-07-20T13:05:48;21.20;65.50
52415;DHT22;38340;52.964;6.086;2023-07-20T13:08:14;21.30;60.40
52415;DHT22;38340;52.964;6.086;2023-07-20T13:10:40;21.20;67.20
52415;DHT22;38340;52.964;6.086;2023-07-20T13:13:07;21.00;40.50
52415;DHT22;38340;52.964;6.086;2023-07-20T13:15:41;21.00;50.50
52415;DHT22;38340;52.964;6.086;2023-07-20T13:18:06;20.90;71.60
52415;DHT22;38340;52.964;6.086;2023-07-20T13:20:32;21.00;61.30
52415;DHT22;38340;52.964;6.086;2023-07-20T13:22:58;21.20;54.00
52415;DHT22;38340;52.964;6.086;2023-07-20T13:25:24;21.40;63.10
52415;DHT22;38340;52.964;6.086;2023-07-20T13:27:50;21.70;57.40
52415;DHT22;38340;52.964;6.086;2023-07-20T13:30:15;21.60;24.10
52415;DHT22;38340;52.964;6.086;2023-07-20T13:32:46;21.70;24.10
52415;DHT22;38340;52.964;6.086;2023-07-20T13:35:12;21.60;22.40
52415;DHT22;38340;52.964;6.086;2023-07-20T13:37:38;21.70;61.60
52415;DHT22;38340;52.964;6.086;2023-07-20T13:40:04;21.90;43.10
52415;DHT22;38340;52.964;6.086;2023-07-20T13:42:31;22.30;25.40
52415;DHT22;38340;52.964;6.086;2023-07-20T13:44:57;22.20;20.80
52415;DHT22;38340;52.964;6.086;2023-07-20T13:47:23;22.20;15.00
52415;DHT22;38340;52.964;6.086;2023-07-20T13:49:49;22.00;22.80
52415;DHT22;38340;52.964;6.086;2023-07-20T13:52:15;21.60;24.40
52415;DHT22;38340;52.964;6.086;2023-07-20T13:54:40;21.20;10.60
52415;DHT22;38340;52.964;6.086;2023-07-20T13:57:06;21.00;24.10
52415;DHT22;38340;52.964;6.086;2023-07-20T13:59:32;21.00;45.50
52415;DHT22;38340;52.964;6.086;2023-07-20T14:01:57;20.70;51.60
52415;DHT22;38340;52.964;6.086;2023-07-20T14:04:23;20.80;42.10
52415;DHT22;38340;52.964;6.086;2023-07-20T14:06:50;20.80;47.80
52415;DHT22;38340;52.964;6.086;2023-07-20T14:09:15;21.00;57.00
52415;DHT22;38340;52.964;6.086;2023-07-20T14:11:41;21.50;66.20
52415;DHT22;38340;52.964;6.086;2023-07-20T14:14:07;21.70;59.20
52415;DHT22;38340;52.964;6.086;2023-07-20T14:16:33;21.90;42.50
52415;DHT22;38340;52.964;6.086;2023-07-20T14:18:58;22.10;27.40
52415;DHT22;38340;52.964;6.086;2023-07-20T14:21:24;22.20;9.50
52415;DHT22;38340;52.964;6.086;2023-07-20T14:23:51;21.80;16.90
52415;DHT22;38340;52.964;6.086;2023-07-20T14:26:18;21.80;40.30
52415;DHT22;38340;52.964;6.086;2023-07-20T14:28:44;21.80;32.80
52415;DHT22;38340;52.964;6.086;2023-07-20T14:31:09;21.80;40.70
52415;DHT22;38340;52.964;6.086;2023-07-20T14:33:35;21.80;62.50
52415;DHT22;38340;52.964;6.086;2023-07-20T14:36:02;22.00;63.40
52415;DHT22;38340;52.964;6.086;2023-07-20T14:38:28;22.10;41.70
52415;DHT22;38340;52.964;6.086;2023-07-20T14:40:54;21.80;18.10
52415;DHT22;38340;52.964;6.086;2023-07-20T14:43:20;21.70;36.60
52415;DHT22;38340;52.964;6.086;2023-07-20T14:45:46;21.60;37.90
52415;DHT22;38340;52.964;6.086;2023-07-20T14:48:12;21.60;46.30
52415;DHT22;38340;52.964;6.086;2023-07-20T14:50:38;21.50;35.00
52415;DHT22;38340;52.964;6.086;2023-07-20T14:53:04;21.80;58.00
52415;DHT22;38340;52.964;6.086;2023-07-20T14:55:29;22.10;52.90
52415;DHT22;38340;52.964;6.086;2023-07-20T14:57:55;22.10;37.80
52415;DHT22;38340;52.964;6.086;2023-07-20T15:00:21;21.90;31.70
52415;DHT22;38340;52.964;6.086;2023-07-20T15:02:46;21.90;62.60
52415;DHT22;38340;52.964;6.086;2023-07-20T15:05:20;22.00;40.80
52415;DHT22;38340;52.964;6.086;2023-07-20T15:07:46;21.90;53.60
52415;DHT22;38340;52.964;6.086;2023-07-20T15:10:12;21.90;59.90
52415;DHT22;38340;52.964;6.086;2023-07-20T15:12:38;21.90;67.40
52415;DHT22;38340;52.964;6.086;2023-07-20T15:15:11;21.80;61.90
52415;DHT22;38340;52.964;6.086;2023-07-20T15:17:38;21.80;54.10
52415;DHT22;38340;52.964;6.086;2023-07-20T15:20:05;21.60;56.90
52415;DHT22;38340;52.964;6.086;2023-07-20T15:22:32;21.50;70.40
52415;DHT22;38340;52.964;6.086;2023-07-20T15:24:58;21.40;68.60
52415;DHT22;38340;52.964;6.086;2023-07-20T15:27:24;21.30;57.20
52415;DHT22;38340;52.964;6.086;2023-07-20T15:29:50;21.20;74.80
52415;DHT22;38340;52.964;6.086;2023-07-20T15:32:17;21.20;82.20
52415;DHT22;38340;52.964;6.086;2023-07-20T15:34:44;21.10;87.50
52415;DHT22;38340;52.964;6.086;2023-07-20T15:37:13;21.10;77.00
52415;DHT22;38340;52.964;6.086;2023-07-20T15:39:39;21.00;73.00
52415;DHT22;38340;52.964;6.086;2023-07-20T15:42:06;20.90;83.80
52415;DHT22;38340;52.964;6.086;2023-07-20T15:44:32;20.80;86.60
52415;DHT22;38340;52.964;6.086;2023-07-20T15:46:57;20.80;89.80
52415;DHT22;38340;52.964;6.086;2023-07-20T15:49:23;20.90;87.50